createdAt,value
2022-10-09T00:01:31.236Z,101832.78
2022-10-09T00:04:00.362Z,101830.81
2022-10-09T00:06:34.754Z,101826.94
2022-10-09T00:09:03.986Z,101838.75
2022-10-09T00:11:34.559Z,101846.19
2022-10-09T00:14:03.658Z,101843.34
2022-10-09T00:16:30.869Z,101848.59
2022-10-09T00:18:58.900Z,101848.00
2022-10-09T00:21:30.815Z,101849.34
2022-10-09T00:24:03.847Z,101850.19
2022-10-09T00:26:32.479Z,101850.38
2022-10-09T00:28:59.576Z,101855.59
2022-10-09T00:31:26.830Z,101861.56
2022-10-09T00:33:53.838Z,101861.25
2022-10-09T00:36:26.125Z,101862.34
2022-10-09T00:38:55.396Z,101866.75
2022-10-09T00:41:33.968Z,101866.50
2022-10-09T00:44:53.035Z,101862.97
2022-10-09T00:47:47.981Z,101871.47
2022-10-09T00:50:38.626Z,101875.06
2022-10-09T00:53:05.858Z,101883.00
2022-10-09T00:55:37.062Z,101884.16
2022-10-09T00:58:05.894Z,101887.97
2022-10-09T01:00:33.409Z,101886.13
2022-10-09T01:03:00.580Z,101884.47
2022-10-09T01:06:17.449Z,101884.97
2022-10-09T01:09:10.561Z,101889.06
2022-10-09T01:12:04.670Z,101893.69
2022-10-09T01:15:07.874Z,101895.28
2022-10-09T01:18:12.151Z,101892.41
2022-10-09T01:21:06.335Z,101906.00
2022-10-09T01:24:21.917Z,101903.88
2022-10-09T01:27:19.985Z,101902.09
2022-10-09T01:30:01.950Z,101904.50
2022-10-09T01:32:39.283Z,101908.59
2022-10-09T01:35:11.799Z,101913.75
2022-10-09T01:37:46.416Z,101915.34
2022-10-09T01:40:18.172Z,101907.38
2022-10-09T01:42:47.382Z,101916.13
2022-10-09T01:45:16.507Z,101916.69
2022-10-09T01:47:43.916Z,101921.03
2022-10-09T01:50:32.846Z,101917.47
2022-10-09T01:53:10.326Z,101920.69
2022-10-09T01:55:51.317Z,101920.13
2022-10-09T01:58:41.446Z,101919.47
2022-10-09T02:01:31.712Z,101915.56
2022-10-09T02:04:07.877Z,101918.31
2022-10-09T02:06:40.315Z,101924.16
2022-10-09T02:09:16.729Z,101923.91
2022-10-09T02:11:55.558Z,101926.13
2022-10-09T02:14:22.832Z,101929.47
2022-10-09T02:17:08.901Z,101925.56
2022-10-09T02:19:52.329Z,101921.66
2022-10-09T02:22:33.470Z,101925.72
2022-10-09T02:25:07.129Z,101930.47
2022-10-09T02:27:35.851Z,101925.78
2022-10-09T02:30:06.009Z,101925.56
2022-10-09T02:32:33.095Z,101937.38
2022-10-09T02:35:00.092Z,101927.47
2022-10-09T02:37:27.119Z,101934.56
2022-10-09T02:39:54.067Z,101936.47
2022-10-09T02:42:22.485Z,101940.28
2022-10-09T02:44:49.439Z,101935.22
2022-10-09T02:47:16.340Z,101930.56
2022-10-09T02:49:43.274Z,101933.63
2022-10-09T02:52:10.589Z,101928.97
2022-10-09T02:54:37.572Z,101923.22
2022-10-09T02:57:04.542Z,101931.97
2022-10-09T02:59:32.200Z,101933.06
2022-10-09T03:01:59.208Z,101933.56
2022-10-09T03:04:26.323Z,101925.00
2022-10-09T03:06:53.242Z,101932.06
2022-10-09T03:09:20.168Z,101932.81
2022-10-09T03:11:47.249Z,101939.41
2022-10-09T03:14:14.153Z,101933.16
2022-10-09T03:16:41.107Z,101944.72
2022-10-09T03:19:07.997Z,101946.13
2022-10-09T03:21:35.236Z,101943.63
2022-10-09T03:24:02.185Z,101950.53
2022-10-09T03:26:29.442Z,101961.50
2022-10-09T03:28:56.828Z,101948.88
2022-10-09T03:34:14.707Z,101954.03
2022-10-09T03:36:42.413Z,101965.78
2022-10-09T03:39:09.610Z,101952.56
2022-10-09T03:41:36.537Z,101962.09
2022-10-09T03:44:03.563Z,101957.69
2022-10-09T03:46:30.627Z,101969.75
2022-10-09T03:48:57.553Z,101973.00
2022-10-09T03:51:24.491Z,101969.44
2022-10-09T03:53:51.441Z,101962.25
2022-10-09T03:56:18.350Z,101967.69
2022-10-09T03:58:45.281Z,101967.91
2022-10-09T04:01:12.282Z,101969.50
2022-10-09T04:03:39.245Z,101973.06
2022-10-09T04:06:06.597Z,101974.41
2022-10-09T04:08:33.542Z,101962.59
2022-10-09T04:11:01.806Z,101968.31
2022-10-09T04:13:28.802Z,101983.59
2022-10-09T04:15:57.181Z,101972.63
2022-10-09T04:18:25.472Z,101978.13
2022-10-09T04:20:56.687Z,101986.59
2022-10-09T04:23:27.914Z,101991.03
2022-10-09T04:25:59.516Z,101986.75
2022-10-09T04:28:30.929Z,101992.16
2022-10-09T04:30:59.452Z,101994.31
2022-10-09T04:33:27.747Z,101997.88
2022-10-09T04:35:56.740Z,101998.22
2022-10-09T04:38:25.154Z,101991.06
2022-10-09T04:41:05.920Z,101998.13
2022-10-09T04:43:35.249Z,101992.19
2022-10-09T04:46:10.817Z,101991.00
2022-10-09T04:48:45.098Z,102001.75
2022-10-09T04:51:14.865Z,102001.66
2022-10-09T04:53:42.401Z,102002.88
2022-10-09T04:56:17.870Z,102009.44
2022-10-09T04:58:47.454Z,102008.50
2022-10-09T05:01:23.337Z,102012.44
2022-10-09T05:03:52.484Z,102008.28
2022-10-09T05:06:22.566Z,102011.84
2022-10-09T05:08:51.328Z,102001.75
2022-10-09T05:11:24.304Z,102007.44
2022-10-09T05:13:56.221Z,102006.88
2022-10-09T05:16:29.116Z,102008.50
2022-10-09T05:18:59.704Z,102004.47
2022-10-09T05:21:29.060Z,102012.44
2022-10-09T05:23:56.924Z,102012.78
2022-10-09T05:26:26.591Z,102013.03
2022-10-09T05:28:54.073Z,102009.09
2022-10-09T05:31:29.533Z,102023.91
2022-10-09T05:34:00.303Z,102021.63
2022-10-09T05:36:28.078Z,102023.09
2022-10-09T05:38:56.750Z,102029.50
2022-10-09T05:41:23.988Z,102032.59
2022-10-09T05:43:51.482Z,102034.84
2022-10-09T05:46:25.579Z,102044.50
2022-10-09T05:49:06.211Z,102047.00
2022-10-09T05:51:38.634Z,102051.28
2022-10-09T05:54:07.055Z,102046.06
2022-10-09T05:56:38.844Z,102052.16
2022-10-09T05:59:14.942Z,102051.56
2022-10-09T06:01:46.840Z,102055.13
2022-10-09T06:04:19.796Z,102062.03
2022-10-09T06:06:49.469Z,102063.34
2022-10-09T06:09:23.289Z,102067.59
2022-10-09T06:11:52.889Z,102068.53
2022-10-09T06:14:22.271Z,102069.47
2022-10-09T06:16:50.854Z,102078.03
2022-10-09T06:19:20.498Z,102079.00
2022-10-09T06:21:49.196Z,102083.00
2022-10-09T06:24:29.089Z,102085.22
2022-10-09T06:26:58.439Z,102089.56
2022-10-09T06:29:25.722Z,102085.09
2022-10-09T06:31:53.140Z,102085.06
2022-10-09T06:34:20.152Z,102081.41
2022-10-09T06:36:47.182Z,102084.91
2022-10-09T06:39:14.142Z,102083.97
2022-10-09T06:41:41.456Z,102088.59
2022-10-09T06:44:16.523Z,102091.81
2022-10-09T06:46:49.293Z,102097.56
2022-10-09T06:49:16.342Z,102090.69
2022-10-09T06:51:43.299Z,102104.13
2022-10-09T06:54:16.048Z,102116.81
2022-10-09T06:56:43.260Z,102111.00
2022-10-09T06:59:12.230Z,102113.66
2022-10-09T07:01:39.484Z,102114.28
2022-10-09T07:04:14.557Z,102131.28
2022-10-09T07:06:47.689Z,102134.13
2022-10-09T07:09:16.460Z,102135.72
2022-10-09T07:11:49.395Z,102133.06
2022-10-09T07:14:17.724Z,102141.38
2022-10-09T07:16:49.109Z,102137.47
2022-10-09T07:19:18.731Z,102133.88
2022-10-09T07:21:49.220Z,102137.47
2022-10-09T07:24:20.509Z,102137.63
2022-10-09T07:26:48.710Z,102136.66
2022-10-09T07:29:19.386Z,102140.72
2022-10-09T07:31:47.017Z,102138.53
2022-10-09T07:34:14.372Z,102140.78
2022-10-09T07:36:41.292Z,102144.06
2022-10-09T07:39:08.510Z,102140.78
2022-10-09T07:41:35.677Z,102139.78
2022-10-09T07:44:03.134Z,102140.66
2022-10-09T07:46:33.753Z,102145.38
2022-10-09T07:49:03.140Z,102145.91
2022-10-09T07:51:32.134Z,102143.97
2022-10-09T07:54:01.968Z,102140.31
2022-10-09T07:56:34.753Z,102151.06
2022-10-09T07:59:07.655Z,102145.56
2022-10-09T08:01:36.680Z,102146.06
2022-10-09T08:04:05.046Z,102151.03
2022-10-09T08:06:33.623Z,102145.66
2022-10-09T08:09:04.930Z,102148.16
2022-10-09T08:11:32.694Z,102150.69
2022-10-09T08:13:59.778Z,102154.47
2022-10-09T08:16:28.528Z,102153.56
2022-10-09T08:18:59.504Z,102157.31
2022-10-09T08:21:28.613Z,102156.97
2022-10-09T08:23:59.619Z,102161.09
2022-10-09T08:26:30.753Z,102155.00
2022-10-09T08:29:05.076Z,102165.22
2022-10-09T08:31:32.880Z,102169.63
2022-10-09T08:34:03.704Z,102171.00
2022-10-09T08:36:32.152Z,102180.81
2022-10-09T08:39:00.038Z,102176.19
2022-10-09T08:41:54.220Z,102182.38
2022-10-09T08:44:29.394Z,102184.66
2022-10-09T08:47:37.961Z,102174.56
2022-10-09T08:50:20.210Z,102180.66
2022-10-09T08:53:14.559Z,102175.22
2022-10-09T08:55:56.022Z,102174.56
2022-10-09T08:58:34.667Z,102184.16
2022-10-09T09:01:24.995Z,102176.41
2022-10-09T09:04:33.672Z,102175.13
2022-10-09T09:07:50.785Z,102180.84
2022-10-09T09:10:50.271Z,102170.34
2022-10-09T09:13:57.428Z,102170.38
2022-10-09T09:17:08.791Z,102174.94
2022-10-09T09:20:47.791Z,102168.13
2022-10-09T09:23:17.133Z,102168.44
2022-10-09T09:25:46.267Z,102175.66
2022-10-09T09:28:35.286Z,102162.34
2022-10-09T09:31:28.077Z,102167.78
2022-10-09T09:34:28.798Z,102165.16
2022-10-09T09:36:59.195Z,102168.22
2022-10-09T09:42:23.955Z,102154.97
2022-10-09T09:45:07.044Z,102159.88
2022-10-09T09:47:50.119Z,102160.94
2022-10-09T09:50:48.653Z,102152.66
2022-10-09T09:53:39.757Z,102163.31
2022-10-09T09:56:09.764Z,102149.72
2022-10-09T09:58:53.236Z,102159.47
2022-10-09T10:01:29.059Z,102156.34
2022-10-09T10:04:02.443Z,102153.81
2022-10-09T10:06:44.747Z,102150.53
2022-10-09T10:09:19.580Z,102148.53
2022-10-09T10:12:03.533Z,102150.22
2022-10-09T10:14:32.526Z,102146.13
2022-10-09T10:17:03.598Z,102140.25
2022-10-09T10:19:38.798Z,102147.63
2022-10-09T10:22:25.940Z,102140.28
2022-10-09T10:24:58.991Z,102130.59
2022-10-09T10:27:44.285Z,102131.63
2022-10-09T10:30:19.805Z,102131.38
2022-10-09T10:33:19.241Z,102130.13
2022-10-09T10:35:53.333Z,102129.22
2022-10-09T10:38:29.789Z,102136.09
2022-10-09T10:41:21.116Z,102134.78
2022-10-09T10:44:14.053Z,102128.63
2022-10-09T10:47:02.019Z,102128.13
2022-10-09T10:49:34.035Z,102124.50
2022-10-09T10:52:08.601Z,102124.41
2022-10-09T10:55:14.251Z,102116.63
2022-10-09T10:58:12.356Z,102105.66
2022-10-09T11:01:18.033Z,102111.75
2022-10-09T11:04:28.671Z,102109.13
2022-10-09T11:07:25.374Z,102106.53
2022-10-09T11:10:22.718Z,102099.69
2022-10-09T11:13:20.501Z,102097.41
2022-10-09T11:16:20.484Z,102097.19
2022-10-09T11:19:18.014Z,102096.56
2022-10-09T11:22:41.900Z,102093.88
2022-10-09T11:25:32.828Z,102097.94
2022-10-09T11:28:22.930Z,102086.69
2022-10-09T11:31:21.592Z,102080.16
2022-10-09T11:34:16.460Z,102087.19
2022-10-09T11:36:45.765Z,102079.47
2022-10-09T11:39:25.231Z,102069.63
2022-10-09T11:41:55.521Z,102076.28
2022-10-09T11:44:41.946Z,102067.25
2022-10-09T11:47:42.368Z,102066.53
2022-10-09T11:50:36.917Z,102062.44
2022-10-09T11:53:19.540Z,102063.81
2022-10-09T11:55:48.266Z,102052.47
2022-10-09T11:58:26.005Z,102056.91
2022-10-09T12:01:09.920Z,102051.59
2022-10-09T12:03:40.211Z,102046.00
2022-10-09T12:06:17.906Z,102047.56
2022-10-09T12:09:00.584Z,102042.84
2022-10-09T12:11:33.575Z,102045.19
2022-10-09T12:14:07.123Z,102049.75
2022-10-09T12:16:43.816Z,102042.97
2022-10-09T12:19:39.131Z,102034.34
2022-10-09T12:22:31.919Z,102024.88
2022-10-09T12:25:30.829Z,102030.94
2022-10-09T12:28:00.738Z,102023.84
2022-10-09T12:30:46.637Z,102030.16
2022-10-09T12:33:52.930Z,102018.97
2022-10-09T12:36:28.987Z,102013.16
2022-10-09T12:38:56.363Z,102016.88
2022-10-09T12:41:34.330Z,102015.66
2022-10-09T12:44:14.833Z,102012.88
2022-10-09T12:46:41.957Z,102007.50
2022-10-09T12:49:25.153Z,102002.28
2022-10-09T12:51:58.263Z,102000.72
2022-10-09T12:54:29.999Z,101990.63
2022-10-09T12:57:00.684Z,101999.69
2022-10-09T12:59:29.625Z,101994.63
2022-10-09T13:02:00.436Z,101992.00
2022-10-09T13:04:34.083Z,101997.69
2022-10-09T13:07:19.821Z,101988.00
2022-10-09T13:09:47.892Z,101981.44
2022-10-09T13:12:28.857Z,101987.13
2022-10-09T13:15:36.922Z,101984.47
2022-10-09T13:18:23.225Z,101982.94
2022-10-09T13:21:29.048Z,101977.63
2022-10-09T13:24:13.477Z,101971.94
2022-10-09T13:26:44.109Z,101972.44
2022-10-09T13:29:14.929Z,101971.59
2022-10-09T13:31:45.024Z,101969.31
2022-10-09T13:34:16.547Z,101975.03
2022-10-09T13:36:43.600Z,101974.22
2022-10-09T13:39:14.955Z,101967.09
2022-10-09T13:41:45.371Z,101965.66
2022-10-09T13:44:12.338Z,101962.47
2022-10-09T13:46:39.311Z,101970.00
2022-10-09T13:49:06.239Z,101961.25
2022-10-09T13:51:33.277Z,101962.53
2022-10-09T13:54:00.324Z,101962.47
2022-10-09T13:56:27.889Z,101958.88
2022-10-09T13:58:55.027Z,101958.22
2022-10-09T14:01:22.024Z,101942.31
2022-10-09T14:03:49.071Z,101948.56
2022-10-09T14:06:16.137Z,101942.94
2022-10-09T14:08:43.276Z,101945.81
2022-10-09T14:11:10.281Z,101933.16
2022-10-09T14:13:37.520Z,101941.44
2022-10-09T14:16:08.655Z,101932.50
2022-10-09T14:18:35.664Z,101932.53
2022-10-09T14:21:15.591Z,101931.03
2022-10-09T14:23:43.856Z,101929.97
2022-10-09T14:26:10.848Z,101925.28
2022-10-09T14:28:38.257Z,101918.25
2022-10-09T14:31:07.789Z,101922.97
2022-10-09T14:33:35.036Z,101915.97
2022-10-09T14:36:18.585Z,101914.16
2022-10-09T14:38:47.993Z,101924.88
2022-10-09T14:41:18.055Z,101916.13
2022-10-09T14:43:46.901Z,101901.00
2022-10-09T14:46:17.853Z,101901.16
2022-10-09T14:48:48.919Z,101903.41
2022-10-09T14:51:22.389Z,101898.28
2022-10-09T14:53:50.584Z,101902.44
2022-10-09T14:56:21.306Z,101898.13
2022-10-09T14:58:48.755Z,101894.34
2022-10-09T15:01:20.569Z,101895.38
2022-10-09T15:03:48.353Z,101900.38
2022-10-09T15:06:20.157Z,101896.31
2022-10-09T15:08:47.190Z,101894.84
2022-10-09T15:11:14.167Z,101890.03
2022-10-09T15:13:41.181Z,101891.38
2022-10-09T15:16:15.221Z,101888.22
2022-10-09T15:18:44.273Z,101889.78
2022-10-09T15:21:33.963Z,101885.94
2022-10-09T15:24:04.637Z,101879.06
2022-10-09T15:26:36.409Z,101882.94
2022-10-09T15:29:07.444Z,101882.50
2022-10-09T15:31:39.841Z,101878.81
2022-10-09T15:34:15.472Z,101878.47
2022-10-09T15:36:44.460Z,101881.91
2022-10-09T15:39:14.860Z,101868.63
2022-10-09T15:41:43.735Z,101861.41
2022-10-09T15:44:20.503Z,101867.06
2022-10-09T15:46:49.727Z,101868.38
2022-10-09T15:49:17.162Z,101868.88
2022-10-09T15:51:44.508Z,101868.56
2022-10-09T15:54:14.453Z,101868.22
2022-10-09T15:56:42.363Z,101863.97
2022-10-09T15:59:13.668Z,101862.19
2022-10-09T16:01:40.689Z,101873.16
2022-10-09T16:04:09.013Z,101872.81
2022-10-09T16:06:36.013Z,101869.06
2022-10-09T16:09:04.522Z,101872.53
2022-10-09T16:11:32.057Z,101869.59
2022-10-09T16:13:59.614Z,101865.63
2022-10-09T16:16:28.331Z,101867.72
2022-10-09T16:18:57.077Z,101864.81
2022-10-09T16:21:28.790Z,101859.34
2022-10-09T16:23:59.569Z,101856.41
2022-10-09T16:26:29.808Z,101853.25
2022-10-09T16:29:00.707Z,101859.50
2022-10-09T16:31:34.957Z,101861.25
2022-10-09T16:34:06.114Z,101847.53
2022-10-09T16:36:34.520Z,101860.38
2022-10-09T16:39:01.835Z,101855.47
2022-10-09T16:41:28.898Z,101847.56
2022-10-09T16:43:58.039Z,101855.72
2022-10-09T16:49:24.140Z,101866.16
2022-10-09T16:51:52.186Z,101867.00
2022-10-09T16:54:19.284Z,101866.50
2022-10-09T16:56:46.376Z,101852.72
2022-10-09T16:59:14.151Z,101858.06
2022-10-09T17:01:45.587Z,101848.69
2022-10-09T17:04:14.540Z,101849.81
2022-10-09T17:06:45.671Z,101855.13
2022-10-09T17:09:14.447Z,101862.09
2022-10-09T17:11:43.535Z,101850.22
2022-10-09T17:14:12.090Z,101848.34
2022-10-09T17:16:43.017Z,101851.41
2022-10-09T17:19:10.160Z,101847.56
2022-10-09T17:21:37.637Z,101843.97
2022-10-09T17:24:07.587Z,101852.84
2022-10-09T17:26:35.827Z,101851.78
2022-10-09T17:29:04.013Z,101837.69
2022-10-09T17:31:31.482Z,101842.72
2022-10-09T17:34:04.384Z,101837.75
2022-10-09T17:36:37.428Z,101847.44
2022-10-09T17:39:09.539Z,101834.78
2022-10-09T17:41:36.829Z,101842.00
2022-10-09T17:44:04.911Z,101834.28
2022-10-09T17:46:32.345Z,101841.47
2022-10-09T17:49:00.307Z,101837.34
2022-10-09T17:51:31.903Z,101838.44
2022-10-09T17:54:10.952Z,101839.88
2022-10-09T17:56:40.637Z,101839.31
2022-10-09T17:59:09.122Z,101831.28
2022-10-09T18:01:39.057Z,101834.91
2022-10-09T18:04:06.095Z,101833.50
2022-10-09T18:06:35.352Z,101829.91
2022-10-09T18:09:04.476Z,101826.06
2022-10-09T18:11:31.675Z,101828.56
2022-10-09T18:13:58.769Z,101823.59
2022-10-09T18:16:35.678Z,101827.75
2022-10-09T18:19:21.638Z,101813.09
2022-10-09T18:21:50.487Z,101818.91
2022-10-09T18:24:18.476Z,101825.00
2022-10-09T18:26:45.365Z,101817.81
2022-10-09T18:29:12.639Z,101814.50
2022-10-09T18:31:39.965Z,101812.31
2022-10-09T18:34:07.135Z,101807.88
2022-10-09T18:36:35.011Z,101807.34
2022-10-09T18:39:09.908Z,101807.63
2022-10-09T18:41:37.363Z,101815.34
2022-10-09T18:44:07.561Z,101807.88
2022-10-09T18:46:42.793Z,101805.97
2022-10-09T18:49:17.039Z,101804.59
2022-10-09T18:51:47.663Z,101807.34
2022-10-09T18:54:18.718Z,101799.59
2022-10-09T18:56:46.621Z,101801.81
2022-10-09T18:59:20.491Z,101797.38
2022-10-09T19:01:47.429Z,101798.22
2022-10-09T19:04:14.778Z,101800.72
2022-10-09T19:06:41.778Z,101801.53
2022-10-09T19:09:08.745Z,101800.97
2022-10-09T19:11:36.132Z,101803.16
2022-10-09T19:14:03.258Z,101786.91
2022-10-09T19:16:34.626Z,101783.84
2022-10-09T19:19:02.190Z,101780.53
2022-10-09T19:21:29.307Z,101777.22
2022-10-09T19:23:56.375Z,101775.03
2022-10-09T19:26:23.830Z,101773.63
2022-10-09T19:28:50.893Z,101772.25
2022-10-09T19:31:18.985Z,101768.66
2022-10-09T19:33:46.228Z,101771.97
2022-10-09T19:36:14.711Z,101774.97
2022-10-09T19:38:43.241Z,101767.56
2022-10-09T19:41:15.589Z,101761.19
2022-10-09T19:43:43.211Z,101761.47
2022-10-09T19:46:20.805Z,101760.66
2022-10-09T19:48:47.790Z,101763.94
2022-10-09T19:51:21.145Z,101763.69
2022-10-09T19:53:48.899Z,101762.59
2022-10-09T19:56:22.862Z,101755.44
2022-10-09T19:58:50.816Z,101764.00
2022-10-09T20:01:24.267Z,101754.34
2022-10-09T20:04:07.859Z,101752.97
2022-10-09T20:06:42.341Z,101750.19
2022-10-09T20:09:12.130Z,101750.44
2022-10-09T20:11:39.375Z,101752.38
2022-10-09T20:14:07.969Z,101743.56
2022-10-09T20:16:35.046Z,101754.88
2022-10-09T20:19:04.046Z,101743.28
2022-10-09T20:21:34.170Z,101741.06
2022-10-09T20:24:01.858Z,101748.22
2022-10-09T20:26:31.417Z,101741.88
2022-10-09T20:28:58.605Z,101735.53
2022-10-09T20:31:28.353Z,101743.25
2022-10-09T20:33:55.844Z,101743.19
2022-10-09T20:36:30.044Z,101738.22
2022-10-09T20:39:07.032Z,101744.84
2022-10-09T20:41:35.265Z,101734.66
2022-10-09T20:44:04.600Z,101736.03
2022-10-09T20:46:36.461Z,101738.75
2022-10-09T20:49:08.684Z,101732.41
2022-10-09T20:51:38.448Z,101729.09
2022-10-09T20:54:08.680Z,101740.69
2022-10-09T20:56:36.695Z,101730.47
2022-10-09T20:59:04.202Z,101733.25
2022-10-09T21:01:31.549Z,101721.91
2022-10-09T21:03:59.489Z,101734.63
2022-10-09T21:06:27.814Z,101726.06
2022-10-09T21:08:55.512Z,101726.34
2022-10-09T21:11:24.240Z,101736.00
2022-10-09T21:13:52.097Z,101719.16
2022-10-09T21:16:24.304Z,101712.28
2022-10-09T21:19:02.489Z,101721.09
2022-10-09T21:21:31.878Z,101717.25
2022-10-09T21:24:01.731Z,101712.28
2022-10-09T21:26:35.311Z,101713.09
2022-10-09T21:29:06.903Z,101702.06
2022-10-09T21:31:34.534Z,101710.28
2022-10-09T21:34:02.437Z,101710.03
2022-10-09T21:37:19.439Z,101707.53
2022-10-09T21:39:36.319Z,101701.22
2022-10-09T21:42:03.350Z,101700.41
2022-10-09T21:44:30.534Z,101696.81
2022-10-09T21:46:57.456Z,101697.94
2022-10-09T21:49:28.008Z,101699.00
2022-10-09T21:51:56.308Z,101693.78
2022-10-09T21:54:24.231Z,101700.69
2022-10-09T21:56:51.201Z,101697.66
2022-10-09T21:59:18.277Z,101704.03
2022-10-09T22:01:45.260Z,101700.16
2022-10-09T22:04:12.239Z,101693.78
2022-10-09T22:06:41.151Z,101696.03
2022-10-09T22:09:08.150Z,101692.41
2022-10-09T22:11:35.081Z,101683.59
2022-10-09T22:14:02.011Z,101681.91
2022-10-09T22:16:28.947Z,101684.13
2022-10-09T22:18:56.361Z,101674.72
2022-10-09T22:21:23.736Z,101673.66
2022-10-09T22:23:51.253Z,101678.06
2022-10-09T22:26:22.837Z,101671.22
2022-10-09T22:28:50.456Z,101667.59
2022-10-09T22:31:27.338Z,101664.59
2022-10-09T22:34:00.220Z,101655.22
2022-10-09T22:36:33.241Z,101655.50
2022-10-09T22:39:06.236Z,101661.28
2022-10-09T22:41:36.145Z,101654.91
2022-10-09T22:44:08.808Z,101647.50
2022-10-09T22:46:44.156Z,101648.56
2022-10-09T22:49:16.628Z,101645.81
2022-10-09T22:51:45.487Z,101646.09
2022-10-09T22:54:13.897Z,101644.16
2022-10-09T22:56:45.305Z,101638.38
2022-10-09T22:59:17.958Z,101645.53
2022-10-09T23:01:53.495Z,101639.72
2022-10-09T23:04:23.591Z,101631.75
2022-10-09T23:06:55.471Z,101629.56
2022-10-09T23:09:28.481Z,101631.50
2022-10-09T23:11:57.367Z,101633.97
2022-10-09T23:14:26.184Z,101629.28
2022-10-09T23:16:53.354Z,101627.66
2022-10-09T23:19:20.347Z,101626.00
2022-10-09T23:21:48.154Z,101629.59
2022-10-09T23:24:17.850Z,101618.28
2022-10-09T23:26:52.085Z,101616.66
2022-10-09T23:29:21.091Z,101620.22
2022-10-09T23:31:52.563Z,101621.03
2022-10-09T23:34:20.172Z,101622.69
2022-10-09T23:36:47.182Z,101616.63
2022-10-09T23:39:14.652Z,101616.59
2022-10-09T23:41:41.771Z,101610.28
2022-10-09T23:44:08.911Z,101610.84
2022-10-09T23:46:37.666Z,101605.59
2022-10-09T23:49:05.897Z,101600.06
2022-10-09T23:51:33.062Z,101607.50
2022-10-09T23:54:00.610Z,101601.69
2022-10-09T23:56:35.522Z,101601.13
2022-10-09T23:59:06.627Z,101599.22
